Time;durP1;ratioP1;P1;durP2;ratioP2;P2;SDS_P1;SDS_P2;PMS_P1;PMS_P2;Temp;Humidity;BMP_temperature;BMP_pressure;BME280_temperature;BME280_humidity;BME280_pressure;Samples;Min_cycle;Max_cycle;Signal;HPM_P1;HPM_P2
2022/01/12 00:00:27;;;;;;;5.72;1.13;;;27.20;99.90;;;;;;5072536;28;20220;-80
2022/01/12 00:03:00;;;;;;;3.33;1.00;;;27.00;99.90;;;;;;5072458;28;20207;-81
2022/01/12 00:05:31;;;;;;;5.25;1.20;;;26.90;99.90;;;;;;5073070;28;20320;-80
2022/01/12 00:08:01;;;;;;;9.27;2.08;;;27.10;99.90;;;;;;5072771;28;20189;-81
2022/01/12 00:10:38;;;;;;;7.90;2.28;;;27.10;99.90;;;;;;5073191;28;20189;-78
2022/01/12 00:13:09;;;;;;;5.20;1.67;;;26.90;99.90;;;;;;5069767;28;20616;-79
2022/01/12 00:15:40;;;;;;;8.18;3.35;;;26.80;99.90;;;;;;5061294;28;20211;-81
2022/01/12 00:18:12;;;;;;;14.52;7.72;;;26.80;99.90;;;;;;5052919;28;20614;-79
2022/01/12 00:20:43;;;;;;;5.72;1.30;;;27.00;99.90;;;;;;5052775;28;20186;-80
2022/01/12 00:23:14;;;;;;;5.68;1.50;;;27.00;99.90;;;;;;5071716;28;20189;-80
2022/01/12 00:34:10;;;;;;;4.13;1.20;;;26.90;99.90;;;;;;5073114;28;20188;-81
2022/01/12 00:36:41;;;;;;;9.00;1.63;;;26.70;99.90;;;;;;5072721;28;20207;-81
2022/01/12 00:39:12;;;;;;;4.20;1.10;;;26.80;99.90;;;;;;5072752;28;20220;-83
2022/01/12 00:41:43;;;;;;;5.70;1.00;;;27.00;99.90;;;;;;5072373;28;21026;-80
2022/01/12 00:44:22;;;;;;;6.88;1.40;;;26.90;99.90;;;;;;5072504;28;20185;-84
2022/01/12 00:46:54;;;;;;;3.92;1.10;;;26.80;99.90;;;;;;5072470;28;20189;-82
2022/01/12 00:49:26;;;;;;;4.57;1.13;;;26.80;99.90;;;;;;5071552;28;20641;-83
2022/01/12 00:51:57;;;;;;;5.25;1.02;;;26.60;99.90;;;;;;5072654;28;20193;-79
2022/01/12 00:54:28;;;;;;;4.72;1.05;;;26.50;99.90;;;;;;5067620;28;20660;-81
2022/01/12 00:56:58;;;;;;;5.88;1.00;;;26.50;99.90;;;;;;5072603;28;20193;-82
2022/01/12 00:59:29;;;;;;;4.43;0.90;;;26.60;99.90;;;;;;5072112;28;20185;-78
2022/01/12 01:02:00;;;;;;;6.05;1.20;;;27.00;99.90;;;;;;5055104;28;20208;-85
2022/01/12 01:04:32;;;;;;;1.88;0.70;;;27.20;99.90;;;;;;5072811;28;20245;-80
2022/01/12 01:07:03;;;;;;;4.60;0.90;;;27.30;99.90;;;;;;5072520;28;20193;-78
2022/01/12 01:09:37;;;;;;;7.15;1.20;;;27.30;99.90;;;;;;5072513;28;20190;-79
2022/01/12 01:12:08;;;;;;;3.03;0.70;;;27.50;99.90;;;;;;5072220;28;20275;-78
2022/01/12 01:14:47;;;;;;;4.28;0.90;;;27.70;99.90;;;;;;5072014;28;20611;-79
2022/01/12 01:25:37;;;;;;;9.63;5.93;;;27.60;99.90;;;;;;5074878;28;20215;-78
2022/01/12 01:28:08;;;;;;;6.82;2.72;;;27.60;99.90;;;;;;5075407;28;20196;-78
2022/01/12 01:30:40;;;;;;;5.15;1.40;;;27.60;99.90;;;;;;5075854;28;20400;-78
2022/01/12 01:33:15;;;;;;;4.45;1.60;;;27.70;99.90;;;;;;5076281;28;20196;-80
2022/01/12 01:35:53;;;;;;;8.32;1.20;;;27.50;99.90;;;;;;5075833;28;20188;-79
2022/01/12 01:38:23;;;;;;;4.70;1.00;;;27.60;99.90;;;;;;5075662;28;20267;-79
2022/01/12 01:40:54;;;;;;;2.53;0.80;;;27.70;99.90;;;;;;5075702;28;20189;-78
2022/01/12 01:43:40;;;;;;;5.90;1.25;;;27.80;99.90;;;;;;5075380;28;20189;-79
2022/01/12 01:54:33;;;;;;;4.82;1.20;;;27.40;99.90;;;;;;5075696;28;20187;-78
2022/01/12 01:57:03;;;;;;;5.93;1.00;;;27.30;99.90;;;;;;5075066;28;20196;-78
2022/01/12 01:59:35;;;;;;;4.75;0.90;;;27.40;99.90;;;;;;5075318;28;20225;-79
2022/01/12 02:02:06;;;;;;;2.28;0.80;;;27.50;99.90;;;;;;5074897;28;20197;-79
2022/01/12 02:04:37;;;;;;;2.58;0.70;;;27.60;99.90;;;;;;5075196;28;20238;-78
2022/01/12 02:07:10;;;;;;;3.10;0.90;;;27.60;99.90;;;;;;5075391;28;20549;-77
2022/01/12 02:09:40;;;;;;;4.50;1.00;;;27.60;99.90;;;;;;5075030;28;20606;-78
2022/01/12 02:12:12;;;;;;;4.82;1.00;;;27.70;99.90;;;;;;5074882;28;20556;-78
2022/01/12 02:14:43;;;;;;;2.75;0.60;;;27.70;99.90;;;;;;5074915;28;20229;-79
2022/01/12 02:17:19;;;;;;;3.90;1.00;;;27.90;99.90;;;;;;5075112;28;20195;-79
2022/01/12 02:20:07;;;;;;;3.05;1.10;;;28.00;99.90;;;;;;5075033;28;20276;-78
2022/01/12 02:36:44;;;;;;;1.73;0.70;;;27.30;99.90;;;;;;5074507;28;20230;-80
2022/01/12 02:42:03;;;;;;;2.88;0.80;;;27.10;99.90;;;;;;5073976;28;20208;-77
2022/01/12 02:55:46;;;;;;;4.03;0.70;;;26.70;99.90;;;;;;5069236;28;20200;-79
2022/01/12 02:58:17;;;;;;;2.95;1.30;;;26.40;99.90;;;;;;5074148;28;20214;-79
2022/01/12 03:01:04;;;;;;;2.58;0.95;;;26.10;99.90;;;;;;5073824;28;20243;-80
2022/01/12 03:03:38;;;;;;;2.42;0.70;;;25.90;99.90;;;;;;5073311;28;20197;-80
2022/01/12 03:06:09;;;;;;;2.17;0.90;;;25.90;99.90;;;;;;5074028;28;20226;-80
2022/01/12 03:08:40;;;;;;;1.42;0.77;;;25.90;99.90;;;;;;5073548;28;20602;-79
2022/01/12 03:11:14;;;;;;;3.83;1.00;;;26.00;99.90;;;;;;5073868;28;20568;-79
2022/01/12 03:13:46;;;;;;;2.63;0.85;;;26.00;99.90;;;;;;5074348;28;20235;-79
2022/01/12 03:16:18;;;;;;;2.90;1.00;;;26.00;99.90;;;;;;5076709;28;20189;-78
2022/01/12 03:18:50;;;;;;;3.58;1.00;;;26.00;99.90;;;;;;5074123;28;20625;-79
2022/01/12 03:21:24;;;;;;;2.85;0.90;;;25.90;99.90;;;;;;5073632;28;20197;-78
2022/01/12 03:23:56;;;;;;;2.60;0.80;;;26.00;99.90;;;;;;5073727;28;20195;-80
2022/01/12 03:26:30;;;;;;;4.88;0.77;;;26.00;99.90;;;;;;5073037;28;20216;-80
2022/01/12 03:29:01;;;;;;;4.15;0.90;;;26.10;99.90;;;;;;5073707;28;20198;-78
2022/01/12 03:31:35;;;;;;;2.05;0.70;;;26.10;99.90;;;;;;5073578;28;20216;-79
2022/01/12 03:34:10;;;;;;;2.90;0.80;;;26.20;99.90;;;;;;5073616;28;20189;-80
2022/01/12 03:36:55;;;;;;;4.18;0.70;;;26.30;99.90;;;;;;5066829;28;20251;-79
2022/01/12 03:39:26;;;;;;;2.78;0.90;;;26.10;99.90;;;;;;5056304;28;20193;-79
2022/01/12 03:41:58;;;;;;;2.55;0.80;;;26.00;99.90;;;;;;5072893;28;20560;-80
2022/01/12 03:44:29;;;;;;;3.67;0.80;;;26.00;99.90;;;;;;5067151;28;20673;-79
2022/01/12 03:46:59;;;;;;;2.83;0.80;;;25.80;99.90;;;;;;5072962;28;20227;-79
2022/01/12 03:49:30;;;;;;;3.45;0.90;;;25.70;99.90;;;;;;5073313;28;20676;-79
2022/01/12 03:52:01;;;;;;;2.97;0.98;;;25.70;99.90;;;;;;5073243;28;20197;-79
2022/01/12 03:54:31;;;;;;;4.22;0.88;;;25.80;99.90;;;;;;5073035;28;20215;-78
2022/01/12 03:57:04;;;;;;;2.97;0.98;;;25.80;99.90;;;;;;5073324;28;20607;-79
2022/01/12 03:59:37;;;;;;;3.60;0.93;;;25.70;99.90;;;;;;5072801;28;20204;-79
2022/01/12 04:02:07;;;;;;;3.72;0.85;;;25.70;99.90;;;;;;5072980;28;20223;-79
2022/01/12 04:04:53;;;;;;;3.65;0.90;;;25.60;99.90;;;;;;5090408;28;20670;-78
2022/01/12 04:10:11;;;;;;;3.83;1.00;;;25.60;99.90;;;;;;5074217;28;20192;-79
2022/01/12 04:12:43;;;;;;;1.67;0.57;;;25.60;99.90;;;;;;5090924;28;20199;-80
2022/01/12 04:15:14;;;;;;;3.22;0.60;;;25.50;99.90;;;;;;5092083;28;20235;-79
2022/01/12 04:17:45;;;;;;;2.65;0.80;;;25.40;99.90;;;;;;5073362;28;20552;-81
2022/01/12 04:20:16;;;;;;;1.67;0.70;;;25.40;99.90;;;;;;5068050;28;20201;-80
2022/01/12 04:25:41;;;;;;;2.75;0.65;;;25.40;99.90;;;;;;5047817;28;20225;-83
2022/01/12 04:28:14;;;;;;;3.08;0.70;;;25.30;99.90;;;;;;5073042;28;20644;-81
2022/01/12 04:30:46;;;;;;;6.63;0.95;;;25.20;99.90;;;;;;5072909;28;20221;-81
2022/01/12 04:33:16;;;;;;;2.88;0.85;;;25.10;99.90;;;;;;5072940;28;20200;-79
2022/01/12 04:35:49;;;;;;;4.45;1.02;;;25.00;99.90;;;;;;5072989;28;20193;-79
2022/01/12 04:38:21;;;;;;;2.13;0.82;;;25.00;99.90;;;;;;5072449;28;20184;-80
2022/01/12 04:40:52;;;;;;;2.92;0.80;;;24.80;99.90;;;;;;5072903;28;20196;-80
2022/01/12 04:43:27;;;;;;;3.03;0.90;;;24.70;99.90;;;;;;5072823;28;20201;-78
2022/01/12 04:46:10;;;;;;;3.08;0.80;;;24.60;99.90;;;;;;5072902;28;20582;-79
2022/01/12 04:48:53;;;;;;;4.25;0.70;;;24.50;99.90;;;;;;5072688;28;20292;-80
2022/01/12 04:51:26;;;;;;;3.83;0.73;;;24.40;99.90;;;;;;5072839;28;20236;-80
2022/01/12 04:53:57;;;;;;;3.58;0.70;;;24.40;99.90;;;;;;5072278;28;20235;-80
2022/01/12 04:56:30;;;;;;;2.72;0.80;;;24.30;99.90;;;;;;5076826;28;20189;-79
2022/01/12 04:59:03;;;;;;;2.17;0.98;;;24.10;99.90;;;;;;5076445;28;20193;-79
2022/01/12 05:01:37;;;;;;;2.30;0.80;;;24.00;99.90;;;;;;5071238;28;20279;-79
2022/01/12 05:07:11;;;;;;;5.55;1.00;;;24.00;99.90;;;;;;5072986;28;20219;-79
2022/01/12 05:15:25;;;;;;;4.50;1.00;;;24.00;99.90;;;;;;5089643;28;20715;-81
2022/01/12 05:17:56;;;;;;;4.07;0.90;;;23.90;99.90;;;;;;5065988;28;20195;-79
2022/01/12 05:20:30;;;;;;;6.57;1.13;;;23.80;99.90;;;;;;5061061;28;20189;-79
2022/01/12 05:23:03;;;;;;;3.30;0.88;;;23.80;99.90;;;;;;5061214;28;20277;-81
2022/01/12 05:25:34;;;;;;;4.35;0.90;;;23.70;99.90;;;;;;5056103;28;20224;-81
2022/01/12 05:28:08;;;;;;;2.88;0.98;;;23.70;99.90;;;;;;5056026;28;20194;-80
2022/01/12 05:30:41;;;;;;;4.53;0.88;;;23.70;99.90;;;;;;5066191;28;20606;-81
2022/01/12 05:33:12;;;;;;;2.33;0.82;;;23.70;99.90;;;;;;5077147;28;20196;-80
2022/01/12 05:35:43;;;;;;;5.15;0.68;;;23.70;99.90;;;;;;5075424;28;20197;-78
2022/01/12 05:38:15;;;;;;;4.05;0.93;;;23.70;99.90;;;;;;5075881;28;20189;-79
2022/01/12 05:40:49;;;;;;;3.42;0.75;;;23.70;99.90;;;;;;5075765;28;20645;-79
2022/01/12 05:43:24;;;;;;;2.65;0.80;;;23.70;99.90;;;;;;5076036;28;20193;-79
2022/01/12 05:45:58;;;;;;;3.63;0.70;;;23.70;99.90;;;;;;5075497;28;20253;-77
2022/01/12 05:51:17;;;;;;;3.92;0.80;;;23.60;99.90;;;;;;5075579;28;20200;-79
2022/01/12 05:53:48;;;;;;;2.30;0.80;;;23.60;99.90;;;;;;5075737;28;20200;-78
2022/01/12 05:56:19;;;;;;;3.08;0.80;;;23.50;99.90;;;;;;5075730;28;20200;-78
2022/01/12 05:58:50;;;;;;;3.55;0.80;;;23.50;99.90;;;;;;5075575;28;20605;-78
2022/01/12 06:01:23;;;;;;;2.85;0.80;;;23.50;99.90;;;;;;5075525;28;20185;-78
2022/01/12 06:03:53;;;;;;;3.85;0.77;;;23.40;99.90;;;;;;5069318;28;20225;-79
2022/01/12 06:06:24;;;;;;;4.10;0.90;;;23.40;99.90;;;;;;5070546;28;20212;-78
2022/01/12 06:08:57;;;;;;;3.25;0.70;;;23.40;99.90;;;;;;5075525;28;20219;-78
2022/01/12 06:11:28;;;;;;;2.78;0.63;;;23.30;99.90;;;;;;5070868;28;20657;-78
2022/01/12 06:13:59;;;;;;;2.28;0.60;;;23.10;99.90;;;;;;5067024;28;20228;-79
2022/01/12 06:16:32;;;;;;;4.25;0.80;;;22.80;99.90;;;;;;5072713;28;20633;-78
2022/01/12 06:19:02;;;;;;;3.33;0.80;;;22.60;99.90;;;;;;5054761;28;20738;-77
2022/01/12 06:21:33;;;;;;;3.17;0.90;;;22.40;99.90;;;;;;5058985;28;20193;-78
2022/01/12 06:24:04;;;;;;;5.80;1.10;;;22.40;99.90;;;;;;5056191;28;20189;-78
2022/01/12 06:26:36;;;;;;;3.92;0.80;;;22.40;99.90;;;;;;5058055;28;20212;-78
2022/01/12 06:29:38;;;;;;;3.53;1.20;;;22.40;99.90;;;;;;5086263;28;20246;-79
2022/01/12 06:32:11;;;;;;;3.40;0.90;;;22.40;99.90;;;;;;5092443;28;20193;-79
2022/01/12 06:34:42;;;;;;;2.70;0.98;;;22.40;99.90;;;;;;5074797;28;20192;-78
2022/01/12 06:37:13;;;;;;;3.25;0.90;;;22.30;99.90;;;;;;5074929;28;20649;-79
2022/01/12 06:39:46;;;;;;;4.05;1.00;;;22.20;99.90;;;;;;5075015;28;20254;-80
2022/01/12 06:42:17;;;;;;;3.83;0.90;;;22.20;99.90;;;;;;5076222;28;20200;-80
2022/01/12 06:44:51;;;;;;;4.43;0.88;;;22.20;99.90;;;;;;5095098;28;20601;-82
2022/01/12 06:47:24;;;;;;;4.20;0.80;;;22.20;99.90;;;;;;5066717;28;20237;-82
2022/01/12 06:49:55;;;;;;;2.78;0.73;;;22.10;99.90;;;;;;5054685;28;20247;-83
2022/01/12 06:52:25;;;;;;;1.95;0.80;;;22.10;99.90;;;;;;5067770;28;20259;-85
2022/01/12 06:54:56;;;;;;;5.22;1.00;;;22.00;99.90;;;;;;5072777;28;20201;-85
2022/01/12 06:57:27;;;;;;;3.10;0.73;;;22.10;99.90;;;;;;5073671;28;20193;-84
2022/01/12 06:59:58;;;;;;;1.85;0.73;;;22.10;99.90;;;;;;5055611;28;20213;-86
2022/01/12 07:02:30;;;;;;;2.35;0.70;;;22.10;99.90;;;;;;5065701;28;20564;-83
2022/01/12 07:05:01;;;;;;;2.38;0.70;;;22.00;99.90;;;;;;5068533;28;20201;-86
2022/01/12 07:07:31;;;;;;;4.60;0.88;;;21.90;99.90;;;;;;5074160;28;20279;-83
2022/01/12 07:10:03;;;;;;;2.83;0.77;;;21.90;99.90;;;;;;5074451;28;20317;-86
2022/01/12 07:12:33;;;;;;;4.18;1.00;;;22.00;99.90;;;;;;5074224;28;20651;-85
2022/01/12 07:15:04;;;;;;;3.15;1.10;;;22.00;99.90;;;;;;5073956;28;20722;-86
2022/01/12 07:17:36;;;;;;;3.85;1.30;;;22.10;99.90;;;;;;5073688;28;20205;-85
2022/01/12 07:20:08;;;;;;;2.10;0.90;;;22.10;99.90;;;;;;5074276;28;20640;-85
2022/01/12 07:22:38;;;;;;;3.78;1.10;;;22.10;99.90;;;;;;5074056;28;20641;-81
2022/01/12 07:25:09;;;;;;;3.65;1.10;;;22.10;99.90;;;;;;5074091;28;20196;-87
2022/01/12 07:27:42;;;;;;;2.63;0.88;;;22.00;99.90;;;;;;5073901;28;20689;-87
2022/01/12 07:30:13;;;;;;;2.25;0.90;;;22.10;99.90;;;;;;5073752;28;20196;-86
2022/01/12 07:32:45;;;;;;;3.67;0.80;;;22.00;99.90;;;;;;5073478;28;20588;-85
2022/01/12 07:35:16;;;;;;;4.25;1.10;;;22.00;99.90;;;;;;5073891;28;20193;-84
2022/01/12 07:37:47;;;;;;;3.33;1.17;;;22.00;99.90;;;;;;5073840;28;20707;-85
2022/01/12 07:40:18;;;;;;;4.63;1.10;;;22.00;99.90;;;;;;5073573;28;20189;-84
2022/01/12 07:42:49;;;;;;;7.97;1.30;;;21.90;99.90;;;;;;5073190;28;20197;-84
2022/01/12 07:45:20;;;;;;;1.83;0.82;;;21.90;99.90;;;;;;5079127;28;20264;-83
2022/01/12 07:47:53;;;;;;;5.30;1.00;;;21.90;99.90;;;;;;5091884;28;20219;-83
2022/01/12 07:50:23;;;;;;;4.88;1.02;;;21.90;99.90;;;;;;5087215;28;20189;-83
2022/01/12 07:52:55;;;;;;;4.20;1.20;;;21.90;99.90;;;;;;5073681;28;20591;-83
2022/01/12 07:55:29;;;;;;;4.10;0.93;;;21.90;99.90;;;;;;5073459;28;20290;-82
2022/01/12 07:58:00;;;;;;;4.13;1.00;;;21.90;99.90;;;;;;5073050;28;20200;-82
2022/01/12 08:00:30;;;;;;;5.80;1.40;;;21.80;99.90;;;;;;5073169;28;20258;-83
2022/01/12 08:03:03;;;;;;;3.58;1.00;;;21.80;99.90;;;;;;5072880;28;20223;-82
2022/01/12 08:05:35;;;;;;;3.55;1.10;;;21.80;99.90;;;;;;5072864;28;20208;-82
2022/01/12 08:08:06;;;;;;;2.72;0.98;;;21.80;99.90;;;;;;5073012;28;20225;-82
2022/01/12 08:10:36;;;;;;;4.15;1.05;;;21.90;99.90;;;;;;5073311;28;20556;-82
2022/01/12 08:13:07;;;;;;;2.30;0.88;;;21.90;99.90;;;;;;5073605;28;20598;-82
2022/01/12 08:15:37;;;;;;;2.38;1.05;;;21.90;99.90;;;;;;5072580;28;20232;-81
2022/01/12 08:18:10;;;;;;;4.55;1.10;;;21.90;99.90;;;;;;5073124;28;20794;-81
2022/01/12 08:20:42;;;;;;;4.45;1.20;;;21.90;99.90;;;;;;5073224;28;20223;-81
2022/01/12 08:23:12;;;;;;;3.30;0.90;;;21.90;99.90;;;;;;5063816;28;20225;-82
2022/01/12 08:25:43;;;;;;;3.45;1.10;;;21.90;99.90;;;;;;5053195;28;20194;-81
2022/01/12 08:28:15;;;;;;;5.50;1.10;;;22.00;99.90;;;;;;5070697;28;20821;-82
2022/01/12 08:30:45;;;;;;;3.05;0.98;;;22.00;99.90;;;;;;5079424;28;20185;-82
2022/01/12 08:33:18;;;;;;;2.80;1.20;;;22.00;99.90;;;;;;5079677;28;20189;-82
2022/01/12 08:35:49;;;;;;;2.33;1.13;;;22.00;99.90;;;;;;5079747;28;20218;-82
2022/01/12 08:38:19;;;;;;;2.97;1.20;;;22.00;99.90;;;;;;5079763;28;20246;-82
2022/01/12 08:40:50;;;;;;;13.75;9.77;;;22.00;99.90;;;;;;5080666;28;20188;-82
2022/01/12 08:43:21;;;;;;;32.13;27.10;;;22.10;99.90;;;;;;5079411;28;20652;-82
2022/01/12 08:45:53;;;;;;;37.28;33.45;;;22.00;99.90;;;;;;5079365;28;20185;-81
2022/01/12 08:48:26;;;;;;;13.32;10.07;;;22.00;99.90;;;;;;5078936;28;20213;-81
2022/01/12 08:50:57;;;;;;;19.02;16.98;;;22.00;99.90;;;;;;5079109;28;20702;-82
2022/01/12 08:53:27;;;;;;;9.98;6.93;;;21.90;99.90;;;;;;5072762;28;20186;-82
2022/01/12 08:55:58;;;;;;;7.00;3.65;;;21.80;99.90;;;;;;5071239;28;20649;-82
2022/01/12 08:58:29;;;;;;;6.80;3.05;;;21.80;99.90;;;;;;5068696;28;20197;-81
2022/01/12 09:01:03;;;;;;;15.48;7.75;;;21.70;99.90;;;;;;5073708;28;20193;-82
2022/01/12 09:03:36;;;;;;;10.55;5.38;;;21.70;99.90;;;;;;5064429;28;20223;-82
2022/01/12 09:06:07;;;;;;;7.80;4.60;;;21.70;99.90;;;;;;5072428;28;20225;-82
2022/01/12 09:08:40;;;;;;;8.38;3.35;;;21.70;99.90;;;;;;5074238;28;20208;-82
2022/01/12 09:11:11;;;;;;;4.47;1.20;;;21.70;99.90;;;;;;5061496;28;20192;-82
2022/01/12 09:13:42;;;;;;;3.63;0.90;;;21.80;99.90;;;;;;5064715;28;20227;-82
2022/01/12 09:16:13;;;;;;;3.92;1.20;;;21.70;99.90;;;;;;5056345;28;20887;-82
2022/01/12 09:18:47;;;;;;;5.00;1.30;;;21.70;99.90;;;;;;5059361;28;20198;-82
2022/01/12 09:21:18;;;;;;;5.85;1.40;;;21.70;99.90;;;;;;5059307;28;20220;-81
2022/01/12 09:23:49;;;;;;;4.78;1.55;;;21.70;99.90;;;;;;5060296;28;20200;-82
2022/01/12 09:26:20;;;;;;;3.55;1.40;;;21.70;99.90;;;;;;5071901;28;20238;-81
2022/01/12 09:28:50;;;;;;;4.18;1.50;;;21.70;99.90;;;;;;5077934;28;20217;-82
2022/01/12 09:31:21;;;;;;;5.55;1.30;;;21.80;99.90;;;;;;5069306;28;20201;-82
2022/01/12 09:33:54;;;;;;;5.93;1.27;;;21.90;99.90;;;;;;5059138;28;20642;-82
2022/01/12 09:36:25;;;;;;;6.47;1.30;;;21.80;99.90;;;;;;5073052;28;20292;-82
2022/01/12 09:38:58;;;;;;;6.00;1.35;;;21.80;99.90;;;;;;5078683;28;20587;-81
2022/01/12 09:41:29;;;;;;;7.72;1.52;;;21.80;99.90;;;;;;5056596;28;20201;-81
2022/01/12 09:44:00;;;;;;;7.60;1.25;;;21.80;99.90;;;;;;5074507;28;20193;-81
2022/01/12 09:46:30;;;;;;;4.60;1.20;;;21.80;99.90;;;;;;5070871;28;20186;-82
2022/01/12 09:49:06;;;;;;;4.70;1.40;;;21.70;99.90;;;;;;5055810;28;20216;-81
2022/01/12 09:51:37;;;;;;;5.85;1.20;;;21.80;99.90;;;;;;5055829;28;20193;-82
2022/01/12 09:54:09;;;;;;;5.78;1.45;;;21.70;99.90;;;;;;5055652;28;20189;-82
2022/01/12 09:56:40;;;;;;;3.95;1.20;;;21.70;99.90;;;;;;5058309;28;20614;-81
2022/01/12 09:59:11;;;;;;;6.85;1.30;;;21.70;99.90;;;;;;5055700;28;20558;-81
2022/01/12 10:01:45;;;;;;;4.65;1.30;;;21.70;99.90;;;;;;5055513;28;20197;-81
2022/01/12 10:04:19;;;;;;;5.07;1.30;;;21.70;99.90;;;;;;5055463;28;20281;-81
2022/01/12 10:06:53;;;;;;;4.43;1.20;;;21.70;99.90;;;;;;5074485;28;20196;-81
2022/01/12 10:09:27;;;;;;;5.97;1.23;;;21.70;99.90;;;;;;5074382;28;20189;-82
2022/01/12 10:12:00;;;;;;;4.13;1.20;;;21.70;99.90;;;;;;5075189;28;20200;-82
2022/01/12 10:14:44;;;;;;;5.68;1.40;;;21.70;99.90;;;;;;5074536;28;20232;-81
2022/01/12 10:17:16;;;;;;;5.22;1.40;;;21.70;99.90;;;;;;5074763;28;20204;-81
2022/01/12 10:19:49;;;;;;;5.95;1.45;;;21.70;99.90;;;;;;5074384;28;20613;-81
2022/01/12 10:22:22;;;;;;;6.55;1.42;;;21.70;99.90;;;;;;5074900;28;20185;-82
2022/01/12 10:24:53;;;;;;;6.22;1.40;;;21.70;99.90;;;;;;5072110;28;20208;-83
2022/01/12 10:27:24;;;;;;;6.35;1.65;;;21.70;99.90;;;;;;5074985;28;20240;-83
2022/01/12 10:30:00;;;;;;;6.50;1.90;;;21.70;99.90;;;;;;5075053;28;20197;-85
2022/01/12 10:32:31;;;;;;;9.70;2.38;;;21.70;99.90;;;;;;5070954;28;20229;-84
2022/01/12 10:35:04;;;;;;;11.93;2.58;;;21.70;99.90;;;;;;5073730;28;20201;-79
2022/01/12 10:37:35;;;;;;;7.43;2.00;;;21.70;99.90;;;;;;5069672;28;20226;-84
2022/01/12 10:40:09;;;;;;;7.07;2.22;;;21.70;99.90;;;;;;5055620;28;20198;-82
2022/01/12 10:42:44;;;;;;;7.05;1.83;;;21.70;99.90;;;;;;5072115;28;20196;-80
2022/01/12 10:45:14;;;;;;;4.88;1.27;;;21.70;99.90;;;;;;5074124;28;20238;-87
2022/01/12 10:47:45;;;;;;;5.60;1.50;;;21.60;99.90;;;;;;5074536;28;20217;-86
2022/01/12 10:50:18;;;;;;;8.90;1.80;;;21.70;99.90;;;;;;5074849;28;20193;-88
2022/01/12 10:52:53;;;;;;;8.10;1.70;;;21.60;99.90;;;;;;5062549;28;20194;-94
2022/01/12 10:55:24;;;;;;;10.73;2.17;;;21.60;99.90;;;;;;5074373;28;20230;-87
2022/01/12 10:57:58;;;;;;;11.35;2.03;;;21.50;99.90;;;;;;5074594;28;20246;-88
2022/01/12 11:00:30;;;;;;;10.45;2.10;;;21.50;99.90;;;;;;5063510;28;20188;-85
2022/01/12 11:03:01;;;;;;;14.23;2.20;;;21.50;99.90;;;;;;5074534;28;20185;-83
2022/01/12 11:05:34;;;;;;;13.73;2.50;;;21.50;99.90;;;;;;5073673;28;20723;-82
2022/01/12 11:08:05;;;;;;;13.35;2.30;;;21.50;99.90;;;;;;5073532;28;20217;-83
2022/01/12 11:10:35;;;;;;;10.32;1.92;;;21.50;99.90;;;;;;5060163;28;20186;-85
2022/01/12 11:13:06;;;;;;;13.23;2.47;;;21.50;99.90;;;;;;5058876;28;20189;-84
2022/01/12 11:15:37;;;;;;;12.60;2.33;;;21.50;99.90;;;;;;5073998;28;20240;-81
2022/01/12 11:18:08;;;;;;;10.82;2.00;;;21.50;99.90;;;;;;5073371;28;20200;-84
2022/01/12 11:20:43;;;;;;;13.35;2.30;;;21.60;99.90;;;;;;5073000;28;20192;-86
2022/01/12 11:23:15;;;;;;;8.32;1.83;;;21.60;99.90;;;;;;5073445;28;20192;-84
2022/01/12 11:25:47;;;;;;;8.20;1.95;;;21.50;99.90;;;;;;5068300;28;20197;-83
2022/01/12 11:28:19;;;;;;;11.38;2.17;;;21.50;99.90;;;;;;5057767;28;20213;-82
2022/01/12 11:31:02;;;;;;;10.40;2.35;;;21.60;99.90;;;;;;5053863;28;20190;-83
2022/01/12 11:33:42;;;;;;;10.88;2.00;;;21.60;99.90;;;;;;5063387;28;20189;-83
2022/01/12 11:36:22;;;;;;;12.68;2.17;;;21.60;99.90;;;;;;5066607;28;20203;-85
2022/01/12 11:39:01;;;;;;;15.27;2.33;;;21.60;99.90;;;;;;5068926;28;20189;-81
2022/01/12 11:41:33;;;;;;;10.55;1.88;;;21.60;99.90;;;;;;5066070;28;20194;-81
2022/01/12 11:44:09;;;;;;;10.38;2.15;;;21.60;99.90;;;;;;5057052;28;20190;-81
2022/01/12 11:46:51;;;;;;;12.02;2.22;;;21.60;99.90;;;;;;5053590;28;20193;-80
2022/01/12 11:49:30;;;;;;;16.30;2.42;;;21.60;99.90;;;;;;5065923;28;20294;-80
2022/01/12 11:52:14;;;;;;;10.13;2.35;;;21.60;99.90;;;;;;5064467;28;20188;-80
2022/01/12 11:54:47;;;;;;;14.00;2.28;;;21.60;99.90;;;;;;5064244;28;20660;-81
2022/01/12 11:57:20;;;;;;;8.80;2.17;;;21.60;99.90;;;;;;5072959;28;20750;-80
2022/01/12 11:59:56;;;;;;;13.40;2.45;;;21.60;99.90;;;;;;5072620;28;20189;-80
2022/01/12 12:02:36;;;;;;;8.45;2.13;;;21.50;99.90;;;;;;5069317;28;20188;-82
2022/01/12 12:05:11;;;;;;;11.00;1.70;;;21.70;99.90;;;;;;5067019;28;20228;-82
2022/01/12 12:07:53;;;;;;;4.65;1.25;;;21.70;99.90;;;;;;5079627;28;20211;-82
2022/01/12 12:10:26;;;;;;;5.32;1.00;;;21.60;99.90;;;;;;5080669;28;20184;-81
2022/01/12 12:12:59;;;;;;;3.10;0.90;;;21.50;99.90;;;;;;5093527;28;20193;-83
2022/01/12 12:15:30;;;;;;;7.28;1.10;;;21.70;99.90;;;;;;5084118;28;20225;-81
2022/01/12 12:18:04;;;;;;;2.65;1.02;;;21.60;99.90;;;;;;5073092;28;20242;-82
2022/01/12 12:20:36;;;;;;;4.28;1.17;;;21.60;99.90;;;;;;5072999;28;20619;-82
2022/01/12 12:23:09;;;;;;;6.15;1.08;;;21.70;99.90;;;;;;5069561;28;20232;-82
2022/01/12 12:25:40;;;;;;;5.18;1.02;;;21.70;99.90;;;;;;5059868;28;20197;-82
2022/01/12 12:28:13;;;;;;;6.60;1.25;;;21.70;99.90;;;;;;5062703;28;20668;-81
2022/01/12 12:30:44;;;;;;;5.30;1.33;;;21.70;99.90;;;;;;5072562;28;20250;-82
2022/01/12 12:33:16;;;;;;;7.30;1.48;;;21.60;99.90;;;;;;5067059;28;20186;-81
2022/01/12 12:35:47;;;;;;;5.15;1.20;;;21.60;99.90;;;;;;5067604;28;20240;-80
2022/01/12 12:38:21;;;;;;;3.70;0.85;;;21.60;99.90;;;;;;5060576;28;20201;-80
2022/01/12 12:40:53;;;;;;;3.50;1.10;;;21.40;99.90;;;;;;5061561;28;20272;-79
2022/01/12 12:43:26;;;;;;;2.50;1.00;;;21.10;99.90;;;;;;5052011;28;20642;-81
2022/01/12 12:45:59;;;;;;;4.47;0.98;;;20.90;99.90;;;;;;5052053;28;20642;-80
2022/01/12 12:48:34;;;;;;;4.80;1.08;;;20.90;99.90;;;;;;5052236;28;20225;-81
2022/01/12 12:51:08;;;;;;;3.00;0.90;;;20.90;99.90;;;;;;5066478;28;20185;-81
2022/01/12 12:53:42;;;;;;;4.45;1.40;;;21.00;99.90;;;;;;5060674;28;20658;-80
2022/01/12 12:56:16;;;;;;;5.32;1.00;;;20.90;99.90;;;;;;5069369;28;20214;-80
2022/01/12 12:59:05;;;;;;;5.43;0.95;;;21.00;99.90;;;;;;5062693;28;20193;-81
2022/01/12 13:01:36;;;;;;;5.35;1.10;;;21.00;99.90;;;;;;5070987;28;20185;-81
2022/01/12 13:04:07;;;;;;;3.33;0.85;;;21.00;99.90;;;;;;5071010;28;20459;-80
2022/01/12 13:06:39;;;;;;;2.38;0.70;;;20.90;99.90;;;;;;5056104;28;20272;-80
2022/01/12 13:09:16;;;;;;;3.50;0.90;;;20.90;99.90;;;;;;5053060;28;20263;-79
2022/01/12 13:11:47;;;;;;;2.58;0.90;;;21.00;99.90;;;;;;5059822;28;20488;-80
2022/01/12 13:14:18;;;;;;;3.35;0.80;;;21.00;99.90;;;;;;5067504;28;20283;-79
2022/01/12 13:16:51;;;;;;;2.20;1.00;;;21.00;99.90;;;;;;5072965;28;20660;-79
2022/01/12 13:21:07;;;;;;;4.82;0.90;;;20.90;99.90;;;;;;5070674;28;20520;-79
2022/01/12 13:22:33;;;;;;;3.17;0.90;;;20.90;99.90;;;;;;5056249;28;20205;-80
2022/01/12 13:25:09;;;;;;;9.75;1.10;;;21.00;99.90;;;;;;5072710;28;20230;-80
2022/01/12 13:27:41;;;;;;;2.60;0.80;;;20.90;99.90;;;;;;5067383;28;20188;-80
2022/01/12 13:30:13;;;;;;;1.60;0.70;;;21.00;99.90;;;;;;5068603;28;20217;-81
2022/01/12 13:32:52;;;;;;;3.67;1.10;;;21.00;99.90;;;;;;5076222;28;20185;-80
2022/01/12 13:35:31;;;;;;;4.72;1.30;;;21.00;99.90;;;;;;5066491;28;20189;-80
2022/01/12 13:38:05;;;;;;;4.55;0.90;;;21.00;99.90;;;;;;5067552;28;20189;-80
2022/01/12 13:40:43;;;;;;;4.40;1.08;;;21.00;99.90;;;;;;5075627;28;20602;-80
2022/01/12 13:43:13;;;;;;;4.75;0.98;;;21.00;99.90;;;;;;5074088;28;20279;-80
2022/01/12 13:45:46;;;;;;;3.13;0.90;;;21.00;99.90;;;;;;5072074;28;20220;-80
2022/01/12 13:48:20;;;;;;;3.28;1.00;;;21.00;99.90;;;;;;5063615;28;20214;-80
2022/01/12 13:50:55;;;;;;;3.05;0.98;;;21.00;99.90;;;;;;5066421;28;20192;-80
2022/01/12 13:53:35;;;;;;;3.10;0.90;;;21.10;99.90;;;;;;5070479;28;20196;-80
2022/01/12 13:56:09;;;;;;;3.28;0.80;;;21.10;99.90;;;;;;5065841;28;20193;-80
2022/01/12 13:58:40;;;;;;;2.65;0.90;;;21.10;99.90;;;;;;5060600;28;20659;-79
2022/01/12 14:01:12;;;;;;;5.30;1.00;;;21.00;99.90;;;;;;5075474;28;20182;-80
2022/01/12 14:03:51;;;;;;;4.32;1.05;;;21.00;99.90;;;;;;5073632;28;20288;-80
2022/01/12 14:06:26;;;;;;;4.93;1.08;;;21.00;99.90;;;;;;5074812;28;20201;-80
2022/01/12 14:09:00;;;;;;;2.72;0.90;;;20.90;99.90;;;;;;5075555;28;20220;-81
2022/01/12 14:11:39;;;;;;;2.25;0.93;;;20.90;99.90;;;;;;5075297;28;20193;-80
2022/01/12 14:14:10;;;;;;;1.10;0.70;;;20.90;99.90;;;;;;5067338;28;20679;-80
2022/01/12 14:16:41;;;;;;;1.95;0.70;;;20.90;99.90;;;;;;5075007;28;20189;-81
2022/01/12 14:19:16;;;;;;;2.17;0.70;;;20.80;99.90;;;;;;5074896;28;20637;-81
2022/01/12 14:21:58;;;;;;;3.92;1.02;;;20.70;99.90;;;;;;5072922;28;20206;-81
2022/01/12 14:24:28;;;;;;;4.18;0.82;;;20.70;99.90;;;;;;5056396;28;20202;-81